Airfield :
LOGIN :

Register | Disclaimer

   EN    FR    IT 

 










Legend :    VFR   Marginal VFR   IFR   Intensive IFR   Very Intensive IFR
Visi :
Ceiling :
>= 8 km
>= 3000ft
5 to 8 km
1000 to 3000 ft
1500m to 5 km
500 to 1000 ft
800 to 1500m
200 to 500 ft
< 800m
< 200 ft
Symbols :   Thunderstorms  Fog  Heavy snow  Heavy precipitations  Wind > 20 kt
SIGMETs :     Misc.  Thunderstorms  Icing  Turbulence  Mountain Waves  Volcanic Ashes






- Airport Elevation : 13 ft
- IATA code : SNR


LFRZ - St-Nazaire

CURRENT METAR :
  • 191500Z AUTO 25017KT 9999 BKN019 BKN043 12/09 Q1027 NOSIG

EXPIRED METARs :
  • 191430Z AUTO 25018KT 9999 BKN020 BKN140 13/09 Q1027 NOSIG
  • 191400Z AUTO 24015KT 9999 BKN018 OVC025 13/10 Q1027 TEMPO 4000 -RA SCT007 BKN012 BKN020
  • 191330Z AUTO 24015KT 9999 BKN019 BKN027 BKN039 13/10 Q1028 TEMPO 4000 -RA SCT007 BKN012 BKN020
  • 191300Z AUTO 25015KT 9999 BKN017 OVC023 13/10 Q1028 TEMPO 4000 -RA SCT007 BKN012 BKN020
  • 191230Z AUTO 22011KT 9999 BKN014 OVC019 12/10 Q1028 TEMPO 4000 -RA

TAF AMD TAF LFRZ
Valid from the 19 at 12:00 until the 20 at 12:00 UTC


191146Z 1912/2012 26015KT 9999 BKN020 BKN045
TEMPO 1912/1915 4000 -RA SCT007 BKN012 BKN020
PROB40
TEMPO 1920/2009 4500 -RA BKN014
BECMG 2005/2007 23015G25KT
TEMPO 2010/2012 23020G30KT



MET'MAP, your aeronautical weather chart ! - Copyright ORBIFLY December 2007 - Disclaimer

ORBIFLY MET'MAP TEAM :

Programming & Development : Alexandra Zaïnal
Concept & original design : Baudouin d'Aumeries
Assistance for programming : Marc-Olivier Méhu
Technical & hardware support : Manuel Goepfert

Contact : metmap@orbifly.com




SOURCES & CREDITS :

   NOAA